createdAt,value
2023-03-06T00:00:32.437Z,0.83
2023-03-06T00:03:00.114Z,0.83
2023-03-06T00:05:27.911Z,0.83
2023-03-06T00:07:55.620Z,0.86
2023-03-06T00:10:25.799Z,0.88
2023-03-06T00:12:53.814Z,0.84
2023-03-06T00:15:23.232Z,0.77
2023-03-06T00:17:50.852Z,0.74
2023-03-06T00:20:19.323Z,0.74
2023-03-06T00:22:47.175Z,0.75
2023-03-06T00:25:16.170Z,0.81
2023-03-06T00:27:43.802Z,0.89
2023-03-06T00:30:13.657Z,0.93
2023-03-06T00:32:42.929Z,0.94
2023-03-06T00:35:11.441Z,0.97
2023-03-06T00:37:39.144Z,1.01
2023-03-06T00:40:07.549Z,1.03
2023-03-06T00:42:35.196Z,1.02
2023-03-06T00:45:02.955Z,1.02
2023-03-06T00:47:30.667Z,1.00
2023-03-06T00:49:59.729Z,1.01
2023-03-06T00:52:27.483Z,1.02
2023-03-06T00:54:55.289Z,1.04
2023-03-06T00:57:22.933Z,1.04
2023-03-06T00:59:50.640Z,1.03
2023-03-06T01:02:18.642Z,1.01
2023-03-06T01:04:46.404Z,1.02
2023-03-06T01:07:15.440Z,0.87
2023-03-06T01:09:43.144Z,0.80
2023-03-06T01:12:10.987Z,0.79
2023-03-06T01:14:38.834Z,0.82
2023-03-06T01:17:07.646Z,0.86
2023-03-06T01:19:35.317Z,0.88
2023-03-06T01:22:02.940Z,0.86
2023-03-06T01:24:31.970Z,0.87
2023-03-06T01:26:59.678Z,0.88
2023-03-06T01:29:27.465Z,0.89
2023-03-06T01:31:55.109Z,0.88
2023-03-06T01:34:22.789Z,0.92
2023-03-06T01:36:50.424Z,0.93
2023-03-06T01:39:18.068Z,0.90
2023-03-06T01:41:47.035Z,0.87
2023-03-06T01:44:14.665Z,0.88
2023-03-06T01:46:43.479Z,0.87
2023-03-06T01:49:22.584Z,0.83
2023-03-06T01:51:52.722Z,0.72
2023-03-06T01:54:23.977Z,0.68
2023-03-06T01:56:55.470Z,0.52
2023-03-06T01:59:23.578Z,0.40
2023-03-06T02:01:51.651Z,0.40
2023-03-06T02:04:19.785Z,0.43
2023-03-06T02:06:48.531Z,0.36
2023-03-06T02:09:16.859Z,0.23
2023-03-06T02:11:46.214Z,0.12
2023-03-06T02:14:17.079Z,0.05
2023-03-06T02:16:44.959Z,0.06
2023-03-06T02:19:22.923Z,0.09
2023-03-06T02:21:50.872Z,0.13
2023-03-06T02:24:28.052Z,0.18
2023-03-06T02:26:57.803Z,0.13
2023-03-06T02:29:28.061Z,0.06
2023-03-06T02:31:56.267Z,0.08
2023-03-06T02:34:57.518Z,0.02
2023-03-06T02:37:27.495Z,0.02
2023-03-06T02:40:02.964Z,0.02
2023-03-06T02:42:32.075Z,0.09
2023-03-06T02:45:02.303Z,0.10
2023-03-06T02:47:30.139Z,0.10
2023-03-06T02:49:57.801Z,0.15
2023-03-06T02:52:25.478Z,0.17
2023-03-06T02:54:53.124Z,0.20
2023-03-06T02:57:20.835Z,0.23
2023-03-06T02:59:49.844Z,0.15
2023-03-06T03:02:17.515Z,0.06
2023-03-06T03:04:45.179Z,0.03
2023-03-06T03:07:12.878Z,-0.04
2023-03-06T03:09:40.494Z,-0.05
2023-03-06T03:12:08.994Z,-0.07
2023-03-06T03:14:36.713Z,-0.04
2023-03-06T03:17:05.848Z,0.01
2023-03-06T03:19:33.614Z,0.04
2023-03-06T03:22:01.283Z,0.04
2023-03-06T03:24:29.061Z,0.03
2023-03-06T03:26:56.786Z,0.03
2023-03-06T03:29:24.637Z,0.04
2023-03-06T03:31:52.345Z,-0.04
2023-03-06T03:34:21.369Z,-0.02
2023-03-06T03:36:49.027Z,0.03
2023-03-06T03:39:16.657Z,0.04
2023-03-06T03:41:44.289Z,0.07
2023-03-06T03:44:11.921Z,0.05
2023-03-06T03:46:39.753Z,0.01
2023-03-06T03:49:07.622Z,0.03
2023-03-06T03:51:36.662Z,0.02
2023-03-06T03:54:06.117Z,0.01
2023-03-06T03:56:34.499Z,0.01
2023-03-06T03:59:02.114Z,0.04
2023-03-06T04:01:29.836Z,0.05
2023-03-06T04:03:57.501Z,0.05
2023-03-06T04:06:25.138Z,0.08
2023-03-06T04:08:54.114Z,0.09
2023-03-06T04:11:21.772Z,0.10
2023-03-06T04:13:49.445Z,0.13
2023-03-06T04:16:17.108Z,0.13
2023-03-06T04:18:44.734Z,0.14
2023-03-06T04:21:12.763Z,0.11
2023-03-06T04:23:40.463Z,-0.03
2023-03-06T04:26:10.194Z,-0.06
2023-03-06T04:28:37.798Z,-0.15
2023-03-06T04:31:05.706Z,-0.14
2023-03-06T04:33:33.498Z,-0.08
2023-03-06T04:36:01.176Z,-0.04
2023-03-06T04:38:28.779Z,0.02
2023-03-06T04:40:56.469Z,0.08
2023-03-06T04:43:25.568Z,0.11
2023-03-06T04:45:53.343Z,0.15
2023-03-06T04:48:21.040Z,0.15
2023-03-06T04:50:48.716Z,0.13
2023-03-06T04:53:16.951Z,0.16
2023-03-06T04:55:44.572Z,0.20
2023-03-06T04:58:12.641Z,0.20
2023-03-06T05:00:41.740Z,0.13
2023-03-06T05:03:09.913Z,0.06
2023-03-06T05:05:37.540Z,0.05
2023-03-06T05:08:05.487Z,0.04
2023-03-06T05:10:33.159Z,0.07
2023-03-06T05:13:00.768Z,0.08
2023-03-06T05:15:28.360Z,0.08
2023-03-06T05:17:57.724Z,0.06
2023-03-06T05:20:25.370Z,0.05
2023-03-06T05:25:59.653Z,0.09
2023-03-06T05:28:28.618Z,0.07
2023-03-06T05:30:56.398Z,0.04
2023-03-06T05:33:26.552Z,0.07
2023-03-06T05:35:54.345Z,0.09
2023-03-06T05:38:23.129Z,0.15
2023-03-06T05:40:50.770Z,0.22
2023-03-06T05:44:17.098Z,0.28
2023-03-06T05:46:44.734Z,0.31
2023-03-06T05:49:13.778Z,0.35
2023-03-06T05:51:41.480Z,0.34
2023-03-06T05:54:09.115Z,0.33
2023-03-06T05:56:37.020Z,0.32
2023-03-06T05:59:04.708Z,0.32
2023-03-06T06:01:32.365Z,0.30
2023-03-06T06:04:00.132Z,0.25
2023-03-06T06:06:29.198Z,0.20
2023-03-06T06:08:56.831Z,0.23
2023-03-06T06:11:24.532Z,0.23
2023-03-06T06:13:52.239Z,0.21
2023-03-06T06:16:19.953Z,0.25
2023-03-06T06:18:47.998Z,0.21
2023-03-06T06:21:15.938Z,0.21
2023-03-06T06:23:45.043Z,0.18
2023-03-06T06:26:12.815Z,0.16
2023-03-06T06:28:40.490Z,0.17
2023-03-06T06:31:12.645Z,0.18
2023-03-06T06:33:40.596Z,0.23
2023-03-06T06:36:16.683Z,0.27
2023-03-06T06:38:45.828Z,0.28
2023-03-06T06:44:01.412Z,0.26
2023-03-06T06:49:17.386Z,0.45
2023-03-06T06:51:45.275Z,0.51
2023-03-06T06:54:14.393Z,0.58
2023-03-06T06:56:42.039Z,0.62
2023-03-06T06:59:16.534Z,0.65
2023-03-06T07:01:44.746Z,0.63
2023-03-06T07:04:13.539Z,0.65
2023-03-06T07:06:41.599Z,0.72
2023-03-06T07:09:09.273Z,0.72
2023-03-06T07:11:38.792Z,0.74
2023-03-06T07:14:06.575Z,0.72
2023-03-06T07:16:34.257Z,0.76
2023-03-06T07:19:01.910Z,0.74
2023-03-06T07:21:29.604Z,0.72
2023-03-06T07:23:57.723Z,0.68
2023-03-06T07:26:25.490Z,0.73
2023-03-06T07:28:54.886Z,0.77
2023-03-06T07:31:24.451Z,0.82
2023-03-06T07:33:52.660Z,0.92
2023-03-06T07:36:20.636Z,0.92
2023-03-06T07:38:48.397Z,0.96
2023-03-06T07:41:17.149Z,0.91
2023-03-06T07:43:46.167Z,0.99
2023-03-06T07:46:15.346Z,1.02
2023-03-06T07:48:43.504Z,1.08
2023-03-06T07:51:16.850Z,1.17
2023-03-06T07:53:44.931Z,1.17
2023-03-06T07:56:13.627Z,1.19
2023-03-06T07:58:43.196Z,1.21
2023-03-06T08:01:13.196Z,1.27
2023-03-06T08:03:42.316Z,1.35
2023-03-06T08:06:11.912Z,1.37
2023-03-06T08:08:41.167Z,1.39
2023-03-06T08:11:09.098Z,1.35
2023-03-06T08:13:37.296Z,1.39
2023-03-06T08:16:05.936Z,1.40
2023-03-06T08:18:34.041Z,1.50
2023-03-06T08:21:08.408Z,1.55
2023-03-06T08:23:36.337Z,1.59
2023-03-06T08:26:06.337Z,1.64
2023-03-06T08:28:34.433Z,1.63
2023-03-06T08:31:09.266Z,1.68
2023-03-06T08:33:37.094Z,1.75
2023-03-06T08:36:06.964Z,1.80
2023-03-06T08:38:34.638Z,1.85
2023-03-06T08:41:02.361Z,1.85
2023-03-06T08:43:29.983Z,1.93
2023-03-06T08:45:58.808Z,1.95
2023-03-06T08:48:26.679Z,1.99
2023-03-06T08:50:54.946Z,2.04
2023-03-06T08:53:40.400Z,2.11
2023-03-06T08:56:16.456Z,2.16
2023-03-06T08:58:44.222Z,2.26
2023-03-06T09:01:14.853Z,2.29
2023-03-06T09:03:42.687Z,2.37
2023-03-06T09:06:10.338Z,2.44
2023-03-06T09:08:42.911Z,2.50
2023-03-06T09:11:10.729Z,2.59
2023-03-06T09:13:38.471Z,2.67
2023-03-06T09:16:06.934Z,2.77
2023-03-06T09:18:34.658Z,2.85
2023-03-06T09:21:02.680Z,2.91
2023-03-06T09:23:30.330Z,3.00
2023-03-06T09:26:00.755Z,3.05
2023-03-06T09:28:28.700Z,3.10
2023-03-06T09:30:56.660Z,3.14
2023-03-06T09:33:25.030Z,3.17
2023-03-06T09:35:54.545Z,3.13
2023-03-06T09:38:23.604Z,3.19
2023-03-06T09:41:02.778Z,3.30
2023-03-06T09:43:33.055Z,3.40
2023-03-06T09:46:00.669Z,3.45
2023-03-06T09:48:34.520Z,3.47
2023-03-06T09:51:03.840Z,3.50
2023-03-06T09:53:43.372Z,3.36
2023-03-06T09:56:16.309Z,3.45
2023-03-06T09:58:48.918Z,3.51
2023-03-06T10:01:20.210Z,3.43
2023-03-06T10:03:50.790Z,3.24
2023-03-06T10:06:22.576Z,3.26
2023-03-06T10:08:52.738Z,3.29
2023-03-06T10:11:26.064Z,3.39
2023-03-06T10:14:08.850Z,3.29
2023-03-06T10:16:36.801Z,3.29
2023-03-06T10:19:08.532Z,3.13
2023-03-06T10:21:44.491Z,3.02
2023-03-06T10:24:21.497Z,3.20
2023-03-06T10:26:54.074Z,3.32
2023-03-06T10:29:43.653Z,3.31
2023-03-06T10:32:17.609Z,3.37
2023-03-06T10:34:45.175Z,3.36
2023-03-06T10:37:19.527Z,3.45
2023-03-06T10:39:48.145Z,3.42
2023-03-06T10:42:17.642Z,3.50
2023-03-06T10:44:45.282Z,3.48
2023-03-06T10:47:28.922Z,3.61
2023-03-06T10:50:00.933Z,3.75
2023-03-06T10:52:31.646Z,3.78
2023-03-06T10:55:25.542Z,3.48
2023-03-06T10:57:54.658Z,3.54
2023-03-06T11:00:29.377Z,3.62
2023-03-06T11:03:14.742Z,3.77
2023-03-06T11:05:42.510Z,3.70
2023-03-06T11:08:21.179Z,3.75
2023-03-06T11:10:56.951Z,3.66
2023-03-06T11:13:27.587Z,3.57
2023-03-06T11:15:58.363Z,3.59
2023-03-06T11:18:31.042Z,3.41
2023-03-06T11:20:58.784Z,3.50
2023-03-06T11:23:36.734Z,3.23
2023-03-06T11:26:21.105Z,3.36
2023-03-06T11:28:59.187Z,3.47
2023-03-06T11:31:30.107Z,3.45
2023-03-06T11:34:05.187Z,3.57
2023-03-06T11:36:38.796Z,3.66
2023-03-06T11:39:20.105Z,3.58
2023-03-06T11:41:53.506Z,3.72
2023-03-06T11:44:26.443Z,3.77
2023-03-06T11:47:03.956Z,3.81
2023-03-06T11:49:34.972Z,3.74
2023-03-06T11:52:07.307Z,3.58
2023-03-06T11:54:34.973Z,3.55
2023-03-06T11:57:05.816Z,3.55
2023-03-06T11:59:53.557Z,3.66
2023-03-06T12:02:29.351Z,3.53
2023-03-06T12:05:02.431Z,3.65
2023-03-06T12:07:32.006Z,3.66
2023-03-06T12:10:07.397Z,3.73
2023-03-06T12:13:17.479Z,3.61
2023-03-06T12:15:57.113Z,3.70
2023-03-06T12:18:41.232Z,3.76
2023-03-06T12:21:12.636Z,3.79
2023-03-06T12:23:50.930Z,3.87
2023-03-06T12:26:38.812Z,3.90
2023-03-06T12:29:19.068Z,4.00
2023-03-06T12:32:04.799Z,4.12
2023-03-06T12:34:48.073Z,3.74
2023-03-06T12:37:23.427Z,3.71
2023-03-06T12:40:23.067Z,3.67
2023-03-06T12:43:11.775Z,3.86
2023-03-06T12:45:39.760Z,3.52
2023-03-06T12:48:12.708Z,3.45
2023-03-06T12:50:44.364Z,3.50
2023-03-06T12:53:16.085Z,3.46
2023-03-06T12:55:46.965Z,3.46
2023-03-06T12:58:35.728Z,3.38
2023-03-06T13:01:06.119Z,3.32
2023-03-06T13:03:44.923Z,3.47
2023-03-06T13:06:29.818Z,3.66
2023-03-06T13:09:13.425Z,3.76
2023-03-06T13:12:18.959Z,3.85
2023-03-06T13:15:25.610Z,3.83
2023-03-06T13:17:53.256Z,3.70
2023-03-06T13:20:41.201Z,3.51
2023-03-06T13:23:49.592Z,3.39
2023-03-06T13:26:51.317Z,3.22
2023-03-06T13:30:05.035Z,3.36
2023-03-06T13:32:35.084Z,3.46
2023-03-06T13:35:03.368Z,3.54
2023-03-06T13:37:39.735Z,3.45
2023-03-06T13:40:30.119Z,3.56
2023-03-06T13:43:13.838Z,3.59
2023-03-06T13:45:43.290Z,3.66
2023-03-06T13:48:43.217Z,3.73
2023-03-06T13:51:16.635Z,3.77
2023-03-06T13:54:21.797Z,3.74
2023-03-06T13:57:28.223Z,3.78
2023-03-06T14:00:34.809Z,3.78
2023-03-06T14:03:22.658Z,3.79
2023-03-06T14:05:51.557Z,3.67
2023-03-06T14:08:20.936Z,3.75
2023-03-06T14:11:00.601Z,3.79
2023-03-06T14:13:38.422Z,3.79
2023-03-06T14:16:19.680Z,3.74
2023-03-06T14:18:49.152Z,3.78
2023-03-06T14:21:26.191Z,3.80
2023-03-06T14:24:00.511Z,3.73
2023-03-06T14:26:31.408Z,3.78
2023-03-06T14:29:00.198Z,3.75
2023-03-06T14:31:30.151Z,3.77
2023-03-06T14:33:59.872Z,3.77
2023-03-06T14:36:33.557Z,3.80
2023-03-06T14:39:05.462Z,3.79
2023-03-06T14:41:35.854Z,3.80
2023-03-06T14:44:16.135Z,3.60
2023-03-06T14:46:44.208Z,3.62
2023-03-06T14:49:14.742Z,3.70
2023-03-06T14:51:43.964Z,3.75
2023-03-06T14:54:16.944Z,3.78
2023-03-06T14:56:47.726Z,3.81
2023-03-06T14:59:18.329Z,3.69
2023-03-06T15:01:47.560Z,3.75
2023-03-06T15:04:21.354Z,3.69
2023-03-06T15:06:49.116Z,3.56
2023-03-06T15:09:20.527Z,3.63
2023-03-06T15:11:58.269Z,3.65
2023-03-06T15:14:32.668Z,3.66
2023-03-06T15:17:25.024Z,3.66
2023-03-06T15:19:55.262Z,3.58
2023-03-06T15:22:28.380Z,3.49
2023-03-06T15:25:09.588Z,3.45
2023-03-06T15:27:39.233Z,3.47
2023-03-06T15:30:21.828Z,3.46
2023-03-06T15:32:49.514Z,3.46
2023-03-06T15:35:26.979Z,3.43
2023-03-06T15:37:54.789Z,3.43
2023-03-06T15:40:25.180Z,3.45
2023-03-06T15:42:54.347Z,3.43
2023-03-06T15:45:23.567Z,3.46
2023-03-06T15:47:53.174Z,3.49
2023-03-06T15:50:22.304Z,3.47
2023-03-06T15:52:50.615Z,3.47
2023-03-06T15:55:19.741Z,3.49
2023-03-06T15:57:50.758Z,3.53
2023-03-06T16:00:27.638Z,3.57
2023-03-06T16:02:56.381Z,3.52
2023-03-06T16:05:24.507Z,3.51
2023-03-06T16:07:52.292Z,3.46
2023-03-06T16:10:22.002Z,3.48
2023-03-06T16:12:51.147Z,3.49
2023-03-06T16:15:22.834Z,3.48
2023-03-06T16:17:50.540Z,3.45
2023-03-06T16:20:20.973Z,3.43
2023-03-06T16:22:49.889Z,3.43
2023-03-06T16:25:18.552Z,3.44
2023-03-06T16:27:49.504Z,3.42
2023-03-06T16:30:21.282Z,3.38
2023-03-06T16:32:49.161Z,3.33
2023-03-06T16:35:18.436Z,3.37
2023-03-06T16:37:46.788Z,3.34
2023-03-06T16:40:19.767Z,3.32
2023-03-06T16:42:47.856Z,3.31
2023-03-06T16:45:16.172Z,3.28
2023-03-06T16:47:46.070Z,3.29
2023-03-06T16:50:22.566Z,3.29
2023-03-06T16:52:50.501Z,3.26
2023-03-06T16:55:18.347Z,3.19
2023-03-06T16:57:46.004Z,3.18
2023-03-06T17:00:15.743Z,3.16
2023-03-06T17:02:45.441Z,3.08
2023-03-06T17:05:13.269Z,3.10
2023-03-06T17:07:41.664Z,3.11
2023-03-06T17:10:11.414Z,3.13
2023-03-06T17:12:39.348Z,3.13
2023-03-06T17:15:08.448Z,3.13
2023-03-06T17:17:36.387Z,3.12
2023-03-06T17:20:07.541Z,3.10
2023-03-06T17:22:35.993Z,3.08
2023-03-06T17:25:05.100Z,3.07
2023-03-06T17:27:32.807Z,3.07
2023-03-06T17:33:48.292Z,3.14
2023-03-06T17:36:19.161Z,3.18
2023-03-06T17:38:47.059Z,3.22
2023-03-06T17:41:15.017Z,3.23
2023-03-06T17:43:42.788Z,3.22
2023-03-06T17:46:12.909Z,3.23
2023-03-06T17:48:41.162Z,3.17
2023-03-06T17:51:10.333Z,3.17
2023-03-06T17:53:38.126Z,3.16
2023-03-06T17:56:07.011Z,3.19
2023-03-06T17:58:34.952Z,3.20
2023-03-06T18:01:10.841Z,3.13
2023-03-06T18:03:38.771Z,3.13
2023-03-06T18:06:09.391Z,3.14
2023-03-06T18:08:38.773Z,3.13
2023-03-06T18:11:07.687Z,3.10
2023-03-06T18:13:36.577Z,3.09
2023-03-06T18:16:05.100Z,3.08
2023-03-06T18:18:33.389Z,3.06
2023-03-06T18:21:04.425Z,3.01
2023-03-06T18:23:32.442Z,3.00
2023-03-06T18:26:10.401Z,2.96
2023-03-06T18:28:39.825Z,2.94
2023-03-06T18:31:08.815Z,2.92
2023-03-06T18:33:36.659Z,2.87
2023-03-06T18:36:05.019Z,2.87
2023-03-06T18:38:32.622Z,2.87
2023-03-06T18:41:00.243Z,2.84
2023-03-06T18:43:29.198Z,2.82
2023-03-06T18:45:57.388Z,2.81
2023-03-06T18:48:25.432Z,2.74
2023-03-06T18:50:53.051Z,2.68
2023-03-06T18:53:21.091Z,2.66
2023-03-06T18:55:49.356Z,2.66
2023-03-06T18:58:16.970Z,2.69
2023-03-06T19:00:46.316Z,2.60
2023-03-06T19:03:14.434Z,2.63
2023-03-06T19:05:42.555Z,2.59
2023-03-06T19:08:10.564Z,2.58
2023-03-06T19:10:38.858Z,2.57
2023-03-06T19:13:07.074Z,2.62
2023-03-06T19:15:34.837Z,2.60
2023-03-06T19:18:03.855Z,2.55
2023-03-06T19:20:31.536Z,2.52
2023-03-06T19:22:59.178Z,2.56
2023-03-06T19:25:26.805Z,2.52
2023-03-06T19:27:54.386Z,2.53
2023-03-06T19:30:25.530Z,2.51
2023-03-06T19:32:54.494Z,2.51
2023-03-06T19:35:24.420Z,2.52
2023-03-06T19:37:52.225Z,2.49
2023-03-06T19:40:20.395Z,2.47
2023-03-06T19:42:48.129Z,2.46
2023-03-06T19:45:15.804Z,2.48
2023-03-06T19:47:43.453Z,2.49
2023-03-06T19:50:12.192Z,2.48
2023-03-06T19:52:41.379Z,2.51
2023-03-06T19:55:10.439Z,2.50
2023-03-06T19:57:38.096Z,2.50
2023-03-06T20:00:06.678Z,2.46
2023-03-06T20:02:35.397Z,2.46
2023-03-06T20:05:03.144Z,2.46
2023-03-06T20:07:30.825Z,2.48
2023-03-06T20:10:00.724Z,2.47
2023-03-06T20:12:28.348Z,2.48
2023-03-06T20:14:55.981Z,2.45
2023-03-06T20:17:23.661Z,2.46
2023-03-06T20:19:51.669Z,2.46
2023-03-06T20:22:20.075Z,2.49
2023-03-06T20:24:47.827Z,2.49
2023-03-06T20:27:16.953Z,2.49
2023-03-06T20:29:45.613Z,2.46
2023-03-06T20:32:13.850Z,2.44
2023-03-06T20:34:41.783Z,2.36
2023-03-06T20:37:10.370Z,2.36
2023-03-06T20:39:38.397Z,2.34
2023-03-06T20:42:06.839Z,2.37
2023-03-06T20:44:36.222Z,2.36
2023-03-06T20:47:03.821Z,2.37
2023-03-06T20:49:31.614Z,2.36
2023-03-06T20:51:59.220Z,2.37
2023-03-06T20:54:26.868Z,2.33
2023-03-06T20:56:54.569Z,2.34
2023-03-06T20:59:23.689Z,2.32
2023-03-06T21:01:52.683Z,2.33
2023-03-06T21:04:20.358Z,2.33
2023-03-06T21:06:48.093Z,2.30
2023-03-06T21:09:17.558Z,2.30
2023-03-06T21:11:45.662Z,2.30
2023-03-06T21:14:14.287Z,2.30
2023-03-06T21:16:42.231Z,2.28
2023-03-06T21:19:12.012Z,2.27
2023-03-06T21:21:39.632Z,2.22
2023-03-06T21:24:07.500Z,2.22
2023-03-06T21:26:35.228Z,2.25
2023-03-06T21:29:03.556Z,2.22
2023-03-06T21:31:31.785Z,2.20
2023-03-06T21:33:59.695Z,2.20
2023-03-06T21:36:29.386Z,2.21
2023-03-06T21:38:56.992Z,2.18
2023-03-06T21:41:25.871Z,2.18
2023-03-06T21:43:57.516Z,2.19
2023-03-06T21:46:25.859Z,2.18
2023-03-06T21:48:54.436Z,2.19
2023-03-06T21:51:23.451Z,2.19
2023-03-06T21:53:53.873Z,2.19
2023-03-06T21:56:24.927Z,2.20
2023-03-06T21:58:52.640Z,2.16
2023-03-06T22:01:23.113Z,2.16
2023-03-06T22:03:51.621Z,2.13
2023-03-06T22:06:21.767Z,2.12
2023-03-06T22:08:49.457Z,2.13
2023-03-06T22:11:20.559Z,2.14
2023-03-06T22:13:48.967Z,2.12
2023-03-06T22:16:17.421Z,2.10
2023-03-06T22:18:45.777Z,2.12
2023-03-06T22:21:14.935Z,2.15
2023-03-06T22:23:42.967Z,2.14
2023-03-06T22:26:12.597Z,2.11
2023-03-06T22:28:41.889Z,2.09
2023-03-06T22:31:11.047Z,2.11
2023-03-06T22:33:38.753Z,2.13
2023-03-06T22:36:07.909Z,2.10
2023-03-06T22:38:36.845Z,2.10
2023-03-06T22:41:05.289Z,2.08
2023-03-06T22:43:33.742Z,2.04
2023-03-06T22:46:03.866Z,2.00
2023-03-06T22:48:31.608Z,2.01
2023-03-06T22:51:03.241Z,2.03
2023-03-06T22:53:30.887Z,2.01
2023-03-06T22:55:59.804Z,1.99
2023-03-06T22:58:28.376Z,1.98
2023-03-06T23:00:56.052Z,1.98
2023-03-06T23:03:25.130Z,1.92
2023-03-06T23:05:52.756Z,1.88
2023-03-06T23:08:20.402Z,1.87
2023-03-06T23:10:48.093Z,1.85
2023-03-06T23:13:15.767Z,1.85
2023-03-06T23:15:43.511Z,1.89
2023-03-06T23:18:11.195Z,1.88
2023-03-06T23:20:43.942Z,1.90
2023-03-06T23:23:11.943Z,1.89
2023-03-06T23:25:39.630Z,1.89
2023-03-06T23:28:07.625Z,1.86
2023-03-06T23:30:35.232Z,1.85
2023-03-06T23:33:02.880Z,1.85
2023-03-06T23:35:30.469Z,1.84
2023-03-06T23:38:00.049Z,1.82
2023-03-06T23:40:27.873Z,1.82
2023-03-06T23:42:55.506Z,1.82
2023-03-06T23:45:23.230Z,1.82
2023-03-06T23:47:50.911Z,1.82
2023-03-06T23:50:18.927Z,1.79
2023-03-06T23:52:46.642Z,1.77
2023-03-06T23:55:15.680Z,1.79
2023-03-06T23:57:43.300Z,1.79
